createdAt,value
2016-10-18T00:01:01.720Z,67.02
2016-10-18T00:02:13.669Z,67.21
2016-10-18T00:03:26.589Z,67.21
2016-10-18T00:04:37.998Z,66.92
2016-10-18T00:05:50.463Z,67.6
2016-10-18T00:07:03.477Z,67.79
2016-10-18T00:08:16.439Z,67.79
2016-10-18T00:09:29.562Z,67.85
2016-10-18T00:10:41.008Z,67.4
2016-10-18T00:11:52.895Z,67.79
2016-10-18T00:13:05.890Z,67.69
2016-10-18T00:14:17.260Z,67.69
2016-10-18T00:15:30.210Z,67.79
2016-10-18T00:16:42.780Z,67.76
2016-10-18T00:17:56.373Z,68.34
2016-10-18T00:19:08.246Z,68.34
2016-10-18T00:20:21.153Z,68.24
2016-10-18T00:21:33.598Z,68.34
2016-10-18T00:22:46.621Z,68.05
2016-10-18T00:23:58.535Z,68.05
2016-10-18T00:25:10.963Z,68.15
2016-10-18T00:26:23.896Z,68.05
2016-10-18T00:27:34.809Z,68.73
2016-10-18T00:28:47.729Z,68.63
2016-10-18T00:30:00.210Z,68.63
2016-10-18T00:31:12.166Z,68.63
2016-10-18T00:32:24.148Z,68.82
2016-10-18T00:33:36.570Z,68.73
2016-10-18T00:34:48.483Z,68.63
2016-10-18T00:36:00.911Z,68.15
2016-10-18T00:37:13.931Z,68.15
2016-10-18T00:38:26.514Z,68.34
2016-10-18T00:39:38.990Z,67.37
2016-10-18T00:40:51.399Z,67.37
2016-10-18T00:42:04.312Z,67.66
2016-10-18T00:43:15.205Z,67.27
2016-10-18T00:44:27.665Z,67.08
2016-10-18T00:45:39.542Z,67.47
2016-10-18T00:46:51.971Z,66.95
2016-10-18T00:48:03.895Z,66.85
2016-10-18T00:49:17.001Z,67.24
2016-10-18T00:50:29.516Z,67.47
2016-10-18T00:51:41.945Z,66.79
2016-10-18T00:52:54.354Z,67.05
2016-10-18T00:54:06.794Z,66.95
2016-10-18T00:55:19.347Z,66.69
2016-10-18T00:56:31.253Z,66.27
2016-10-18T00:57:43.181Z,66.08
2016-10-18T00:58:55.599Z,66.56
2016-10-18T01:00:06.575Z,66.47
2016-10-18T01:01:19.025Z,66.47
2016-10-18T01:02:30.571Z,66.08
2016-10-18T01:03:44.078Z,66.47
2016-10-18T01:04:56.555Z,66.47
2016-10-18T01:06:09.532Z,65.5
2016-10-18T01:07:21.996Z,66.08
2016-10-18T01:08:34.963Z,65.11
2016-10-18T01:09:48.516Z,65.2
2016-10-18T01:11:00.738Z,65.11
2016-10-18T01:12:12.584Z,65.98
2016-10-18T01:13:24.437Z,65.4
2016-10-18T01:14:37.349Z,65.59
2016-10-18T01:15:48.752Z,66.56
2016-10-18T01:17:00.285Z,66.66
2016-10-18T01:18:13.246Z,66.92
2016-10-18T01:19:26.268Z,66.43
2016-10-18T01:20:38.169Z,66.72
2016-10-18T01:21:50.581Z,67.02
2016-10-18T01:23:03.100Z,67.3
2016-10-18T01:24:15.593Z,67.02
2016-10-18T01:25:28.583Z,67.3
2016-10-18T01:26:40.969Z,67.21
2016-10-18T01:27:54.126Z,68.18
2016-10-18T01:29:06.530Z,68.27
2016-10-18T01:30:18.917Z,68.47
2016-10-18T01:31:32.431Z,68.47
2016-10-18T01:32:45.339Z,68.95
2016-10-18T01:33:57.261Z,69.15
2016-10-18T01:35:09.121Z,68.91
2016-10-18T01:36:22.579Z,69.4
2016-10-18T01:37:35.636Z,69.59
2016-10-18T01:38:48.212Z,69.4
2016-10-18T01:40:01.340Z,69.89
2016-10-18T01:41:13.235Z,69.79
2016-10-18T01:42:26.777Z,70.18
2016-10-18T01:43:39.773Z,70.18
2016-10-18T01:44:51.621Z,70.37
2016-10-18T01:46:03.552Z,70.37
2016-10-18T01:47:16.021Z,70.37
2016-10-18T01:48:28.998Z,70.56
2016-10-18T01:49:41.688Z,70.95
2016-10-18T01:50:53.663Z,71.11
2016-10-18T01:52:05.067Z,70.66
2016-10-18T01:53:18.024Z,70.95
2016-10-18T01:54:31.518Z,70.86
2016-10-18T01:55:44.588Z,71.04
2016-10-18T01:56:58.016Z,71.04
2016-10-18T01:58:11.060Z,71.4
2016-10-18T01:59:23.493Z,71.2
2016-10-18T02:00:35.563Z,71.01
2016-10-18T02:01:48.537Z,70.92
2016-10-18T02:03:00.451Z,70.95
2016-10-18T02:04:13.437Z,71.14
2016-10-18T02:05:26.353Z,71.14
2016-10-18T02:06:39.254Z,71.14
2016-10-18T02:07:52.281Z,71.24
2016-10-18T02:09:05.173Z,71.53
2016-10-18T02:10:17.063Z,71.4
2016-10-18T02:11:30.183Z,71.01
2016-10-18T02:12:41.012Z,71.2
2016-10-18T02:13:53.539Z,71.5
2016-10-18T02:15:05.465Z,70.92
2016-10-18T02:16:18.896Z,70.86
2016-10-18T02:17:31.925Z,70.82
2016-10-18T02:18:42.817Z,71.3
2016-10-18T02:19:55.484Z,71.2
2016-10-18T02:21:08.428Z,71.3
2016-10-18T02:22:21.009Z,71.53
2016-10-18T02:23:33.394Z,71.3
2016-10-18T02:24:46.364Z,71.24
2016-10-18T02:25:59.371Z,71.4
2016-10-18T02:27:12.008Z,71.4
2016-10-18T02:28:25.026Z,71.11
2016-10-18T02:29:37.185Z,71.2
2016-10-18T02:30:49.044Z,71.11
2016-10-18T02:32:00.420Z,71.4
2016-10-18T02:33:13.011Z,71.01
2016-10-18T02:34:24.854Z,70.92
2016-10-18T02:35:37.792Z,71.11
2016-10-18T02:36:50.844Z,71.01
2016-10-18T02:38:03.869Z,71.5
2016-10-18T02:39:16.836Z,71.4
2016-10-18T02:40:30.286Z,71.5
2016-10-18T02:41:42.209Z,71.3
2016-10-18T02:42:54.683Z,71.4
2016-10-18T02:44:08.299Z,71.2
2016-10-18T02:45:21.222Z,71.2
2016-10-18T02:46:34.140Z,70.92
2016-10-18T02:47:46.574Z,70.92
2016-10-18T02:48:59.015Z,71.11
2016-10-18T02:50:11.949Z,70.82
2016-10-18T02:51:23.883Z,71.4
2016-10-18T02:52:35.738Z,71.46
2016-10-18T02:53:48.181Z,71.11
2016-10-18T02:55:01.316Z,71.4
2016-10-18T02:56:13.838Z,71.17
2016-10-18T02:57:25.747Z,71.08
2016-10-18T02:58:39.386Z,71.36
2016-10-18T02:59:52.931Z,71.66
2016-10-18T03:01:04.361Z,71.56
2016-10-18T03:02:15.800Z,71.26
2016-10-18T03:03:27.696Z,71.56
2016-10-18T03:04:40.613Z,71.56
2016-10-18T03:05:53.703Z,71.66
2016-10-18T03:07:05.678Z,71.36
2016-10-18T03:08:17.657Z,71.66
2016-10-18T03:09:29.613Z,71.36
2016-10-18T03:10:41.482Z,71.56
2016-10-18T03:11:54.512Z,71.66
2016-10-18T03:13:06.958Z,71.56
2016-10-18T03:14:20.089Z,71.26
2016-10-18T03:15:32.039Z,71.46
2016-10-18T03:16:44.642Z,72.33
2016-10-18T03:17:57.106Z,72.04
2016-10-18T03:19:10.067Z,71.94
2016-10-18T03:20:22.465Z,71.94
2016-10-18T03:21:34.404Z,71.56
2016-10-18T03:22:47.315Z,72.14
2016-10-18T03:23:59.769Z,71.62
2016-10-18T03:25:12.788Z,71.56
2016-10-18T03:26:25.226Z,72.72
2016-10-18T03:27:36.751Z,72.68
2016-10-18T03:28:48.739Z,72.49
2016-10-18T03:30:01.228Z,72.58
2016-10-18T03:31:12.555Z,72.68
2016-10-18T03:32:25.054Z,72.39
2016-10-18T03:33:37.996Z,72.39
2016-10-18T03:34:50.437Z,72.3
2016-10-18T03:36:03.445Z,72.39
2016-10-18T03:37:15.870Z,72.3
2016-10-18T03:38:27.929Z,72.49
2016-10-18T03:39:40.386Z,72.68
2016-10-18T03:40:52.818Z,72.68
2016-10-18T03:42:05.229Z,72.58
2016-10-18T03:43:17.653Z,72.58
2016-10-18T03:44:30.723Z,72.49
2016-10-18T03:45:42.693Z,72
2016-10-18T03:46:54.078Z,72.1
2016-10-18T03:48:06.511Z,71.81
2016-10-18T03:49:18.639Z,72.1
2016-10-18T03:50:31.557Z,72.1
2016-10-18T03:51:44.559Z,72.2
2016-10-18T03:52:56.962Z,72.1
2016-10-18T03:54:09.363Z,71.72
2016-10-18T03:55:22.918Z,71.81
2016-10-18T03:56:35.836Z,71.81
2016-10-18T03:57:47.763Z,71.91
2016-10-18T03:59:00.723Z,72.68
2016-10-18T04:00:12.780Z,72.58
2016-10-18T04:01:25.751Z,72.49
2016-10-18T04:02:37.597Z,72.49
2016-10-18T04:03:51.109Z,72.49
2016-10-18T04:05:04.071Z,72.49
2016-10-18T04:06:17.569Z,72.49
2016-10-18T04:07:29.989Z,72.58
2016-10-18T04:08:43.499Z,72.39
2016-10-18T04:09:54.885Z,72.78
2016-10-18T04:11:08.511Z,72.39
2016-10-18T04:12:21.474Z,72.58
2016-10-18T04:13:34.419Z,72.3
2016-10-18T04:14:47.308Z,72.3
2016-10-18T04:15:58.318Z,72.3
2016-10-18T04:17:10.846Z,72.49
2016-10-18T04:18:22.822Z,72.58
2016-10-18T04:19:35.801Z,72.3
2016-10-18T04:20:48.232Z,72.39
2016-10-18T04:22:00.183Z,72.39
2016-10-18T04:23:12.152Z,72.49
2016-10-18T04:24:24.033Z,72.39
2016-10-18T04:25:37.017Z,72.68
2016-10-18T04:26:48.897Z,72.39
2016-10-18T04:28:01.796Z,72.39
2016-10-18T04:29:14.735Z,72.68
2016-10-18T04:30:26.100Z,72.58
2016-10-18T04:31:38.562Z,72.78
2016-10-18T04:32:51.602Z,72.88
2016-10-18T04:34:03.499Z,72.78
2016-10-18T04:35:16.418Z,72.49
2016-10-18T04:36:28.850Z,72.49
2016-10-18T04:37:40.818Z,72.49
2016-10-18T04:38:52.762Z,72.58
2016-10-18T04:40:05.775Z,72.68
2016-10-18T04:41:17.679Z,72.39
2016-10-18T04:42:30.097Z,72.78
2016-10-18T04:43:42.088Z,72.58
2016-10-18T04:44:54.000Z,72.49
2016-10-18T04:46:05.443Z,72.39
2016-10-18T04:47:17.397Z,72.1
2016-10-18T04:48:29.352Z,72.1
2016-10-18T04:49:42.885Z,72.1
2016-10-18T04:50:55.295Z,71.91
2016-10-18T04:52:08.177Z,72.1
2016-10-18T04:53:21.134Z,72.1
2016-10-18T04:54:34.197Z,72.78
2016-10-18T04:55:46.604Z,72.68
2016-10-18T04:56:58.447Z,72.74
2016-10-18T04:58:11.674Z,73.52
2016-10-18T04:59:23.596Z,73.52
2016-10-18T05:00:36.071Z,73.42
2016-10-18T05:01:48.977Z,73.32
2016-10-18T05:03:01.380Z,73.42
2016-10-18T05:04:13.288Z,73.22
2016-10-18T05:05:26.824Z,73.42
2016-10-18T05:06:40.327Z,73.13
2016-10-18T05:07:52.464Z,73.22
2016-10-18T05:09:03.864Z,73.22
2016-10-18T05:10:16.300Z,73.22
2016-10-18T05:11:28.226Z,73.22
2016-10-18T05:12:40.662Z,73.22
2016-10-18T05:13:53.627Z,73.13
2016-10-18T05:15:05.549Z,73.32
2016-10-18T05:16:18.267Z,73.03
2016-10-18T05:17:31.243Z,73.22
2016-10-18T05:18:44.156Z,73.22
2016-10-18T05:19:57.106Z,73.22
2016-10-18T05:21:10.586Z,73.32
2016-10-18T05:22:23.694Z,73.42
2016-10-18T05:23:36.281Z,73.22
2016-10-18T05:24:48.648Z,73.42
2016-10-18T05:25:59.504Z,73.13
2016-10-18T05:27:12.507Z,73.22
2016-10-18T05:28:25.076Z,73.32
2016-10-18T05:29:37.540Z,73.42
2016-10-18T05:30:49.952Z,73.03
2016-10-18T05:32:02.981Z,73.13
2016-10-18T05:33:15.439Z,73.42
2016-10-18T05:34:28.428Z,73.13
2016-10-18T05:35:40.939Z,73.13
2016-10-18T05:36:54.605Z,73.22
2016-10-18T05:38:07.748Z,73.42
2016-10-18T05:39:20.260Z,73.42
2016-10-18T05:40:33.258Z,73.42
2016-10-18T05:41:45.129Z,73.22
2016-10-18T05:42:58.165Z,73.03
2016-10-18T05:44:09.681Z,73.13
2016-10-18T05:45:22.799Z,73.03
2016-10-18T05:46:34.666Z,73.22
2016-10-18T05:47:47.607Z,73.22
2016-10-18T05:49:00.272Z,73.32
2016-10-18T05:50:12.696Z,73.9
2016-10-18T05:51:25.162Z,73.9
2016-10-18T05:52:36.851Z,73.9
2016-10-18T05:53:48.199Z,73.22
2016-10-18T05:55:01.632Z,73.42
2016-10-18T05:56:13.615Z,73.9
2016-10-18T05:57:25.553Z,73.77
2016-10-18T05:58:38.488Z,73.77
2016-10-18T05:59:50.932Z,74.16
2016-10-18T06:01:02.343Z,73.96
2016-10-18T06:02:13.715Z,73.67
2016-10-18T06:03:25.607Z,73.96
2016-10-18T06:04:37.002Z,73.96
2016-10-18T06:05:50.098Z,74.06
2016-10-18T06:07:01.445Z,74.06
2016-10-18T06:08:14.341Z,74.16
2016-10-18T06:09:25.734Z,74.06
2016-10-18T06:10:38.169Z,74.16
2016-10-18T06:11:50.606Z,73.86
2016-10-18T06:13:03.491Z,74.16
2016-10-18T06:14:14.893Z,74.06
2016-10-18T06:15:26.786Z,73.96
2016-10-18T06:16:39.289Z,73.86
2016-10-18T06:17:51.200Z,74.06
2016-10-18T06:19:03.673Z,74.16
2016-10-18T06:20:17.204Z,74.16
2016-10-18T06:21:30.203Z,74.06
2016-10-18T06:22:42.647Z,74.06
2016-10-18T06:23:55.176Z,74.16
2016-10-18T06:25:07.613Z,74.25
2016-10-18T06:26:20.027Z,74.35
2016-10-18T06:27:33.046Z,74.16
2016-10-18T06:28:46.007Z,74.25
2016-10-18T06:29:57.927Z,73.96
2016-10-18T06:31:10.912Z,74.16
2016-10-18T06:32:23.845Z,74.25
2016-10-18T06:33:36.276Z,74.25
2016-10-18T06:34:49.310Z,74.16
2016-10-18T06:36:02.304Z,74.16
2016-10-18T06:37:14.731Z,74.06
2016-10-18T06:38:26.761Z,73.86
2016-10-18T06:39:40.227Z,74.16
2016-10-18T06:40:52.724Z,74.06
2016-10-18T06:42:05.221Z,73.96
2016-10-18T06:43:18.155Z,74.16
2016-10-18T06:44:30.644Z,74.16
2016-10-18T06:45:44.113Z,74.16
2016-10-18T06:46:57.624Z,74.64
2016-10-18T06:48:10.088Z,74.35
2016-10-18T06:49:21.567Z,74.64
2016-10-18T06:50:34.989Z,74.54
2016-10-18T06:51:47.381Z,74.89
2016-10-18T06:52:59.376Z,74.51
2016-10-18T06:54:11.767Z,74.51
2016-10-18T06:55:24.841Z,74.6
2016-10-18T06:56:36.782Z,74.79
2016-10-18T06:57:50.219Z,74.79
2016-10-18T06:59:03.279Z,74.89
2016-10-18T07:00:15.405Z,74.79
2016-10-18T07:01:27.884Z,74.99
2016-10-18T07:02:40.845Z,74.79
2016-10-18T07:03:53.323Z,75.09
2016-10-18T07:05:05.740Z,75.09
2016-10-18T07:06:18.212Z,74.89
2016-10-18T07:07:30.662Z,74.89
2016-10-18T07:08:42.590Z,74.89
2016-10-18T07:09:54.491Z,74.6
2016-10-18T07:11:06.531Z,74.99
2016-10-18T07:12:18.392Z,74.99
2016-10-18T07:13:30.844Z,75.37
2016-10-18T07:14:43.735Z,74.89
2016-10-18T07:15:55.621Z,75.47
2016-10-18T07:17:08.703Z,75.57
2016-10-18T07:18:21.753Z,75.67
2016-10-18T07:19:34.217Z,75.18
2016-10-18T07:20:46.165Z,75.47
2016-10-18T07:21:58.799Z,75.09
2016-10-18T07:23:10.196Z,75.09
2016-10-18T07:24:21.596Z,75.09
2016-10-18T07:25:33.480Z,75.27
2016-10-18T07:26:45.952Z,75.47
2016-10-18T07:27:58.587Z,75.72
2016-10-18T07:29:10.998Z,76.01
2016-10-18T07:30:22.944Z,75.82
2016-10-18T07:31:36.520Z,75.72
2016-10-18T07:32:49.430Z,75.43
2016-10-18T07:34:02.540Z,75.43
2016-10-18T07:35:13.929Z,75.67
2016-10-18T07:36:25.860Z,75.53
2016-10-18T07:37:38.310Z,75.34
2016-10-18T07:38:50.324Z,75.62
2016-10-18T07:40:02.712Z,75.92
2016-10-18T07:41:14.128Z,75.53
2016-10-18T07:42:25.517Z,76.01
2016-10-18T07:43:36.945Z,76.01
2016-10-18T07:44:49.493Z,76.3
2016-10-18T07:46:02.888Z,76.2
2016-10-18T07:47:15.333Z,76.2
2016-10-18T07:48:27.210Z,76.88
2016-10-18T07:49:39.647Z,76.98
2016-10-18T07:50:52.586Z,76.88
2016-10-18T07:52:05.489Z,76.78
2016-10-18T07:53:16.866Z,76.68
2016-10-18T07:54:30.345Z,76.4
2016-10-18T07:55:42.355Z,76.68
2016-10-18T07:56:54.288Z,76.88
2016-10-18T07:58:06.706Z,76.78
2016-10-18T07:59:18.616Z,76.59
2016-10-18T08:00:30.051Z,77.07
2016-10-18T08:01:42.041Z,76.68
2016-10-18T08:02:55.581Z,76.98
2016-10-18T08:04:08.036Z,77.46
2016-10-18T08:05:19.972Z,77.55
2016-10-18T08:06:31.840Z,77.36
2016-10-18T08:07:43.720Z,78.13
2016-10-18T08:08:56.638Z,78.03
2016-10-18T08:10:09.136Z,77.75
2016-10-18T08:11:22.056Z,78.03
2016-10-18T08:12:35.210Z,78.13
2016-10-18T08:13:47.658Z,78.03
2016-10-18T08:15:00.041Z,78
2016-10-18T08:16:13.016Z,78
2016-10-18T08:17:25.429Z,77.9
2016-10-18T08:18:39.048Z,78.19
2016-10-18T08:19:52.023Z,78.09
2016-10-18T08:21:04.981Z,78.09
2016-10-18T08:22:17.919Z,78.09
2016-10-18T08:23:29.455Z,78.29
2016-10-18T08:24:43.052Z,77.71
2016-10-18T08:25:56.574Z,78.29
2016-10-18T08:27:08.440Z,78
2016-10-18T08:28:21.969Z,78.77
2016-10-18T08:29:35.048Z,78.77
2016-10-18T08:30:48.076Z,78.38
2016-10-18T08:31:59.991Z,78.38
2016-10-18T08:33:13.448Z,78.19
2016-10-18T08:34:25.984Z,78.38
2016-10-18T08:35:39.458Z,78.29
2016-10-18T08:36:51.876Z,78.38
2016-10-18T08:38:05.314Z,78.58
2016-10-18T08:39:17.207Z,78.67
2016-10-18T08:40:29.062Z,78.77
2016-10-18T08:41:40.473Z,78.96
2016-10-18T08:42:53.435Z,79.35
2016-10-18T08:44:04.837Z,79.44
2016-10-18T08:45:16.834Z,79.16
2016-10-18T08:46:29.292Z,79.25
2016-10-18T08:47:41.141Z,79.25
2016-10-18T08:48:54.125Z,79.25
2016-10-18T08:50:06.041Z,79.06
2016-10-18T08:51:18.041Z,79.25
2016-10-18T08:52:30.053Z,79.16
2016-10-18T08:53:41.555Z,79.35
2016-10-18T08:54:55.031Z,79.25
2016-10-18T08:56:08.026Z,79.35
2016-10-18T08:57:21.226Z,79.35
2016-10-18T08:58:33.930Z,79.06
2016-10-18T08:59:45.928Z,79.06
2016-10-18T09:00:57.312Z,79.44
2016-10-18T09:02:09.235Z,79.35
2016-10-18T09:03:22.404Z,79.16
2016-10-18T09:04:35.549Z,79.44
2016-10-18T09:05:48.343Z,79.06
2016-10-18T09:07:01.952Z,79.19
2016-10-18T09:08:14.408Z,79.16
2016-10-18T09:09:26.863Z,79.1
2016-10-18T09:10:39.344Z,79.39
2016-10-18T09:11:52.386Z,79.1
2016-10-18T09:13:04.800Z,78.61
2016-10-18T09:14:17.750Z,78.42
2016-10-18T09:15:31.433Z,78.61
2016-10-18T09:16:43.642Z,78.23
2016-10-18T09:17:56.213Z,77.84
2016-10-18T09:19:09.479Z,77.65
2016-10-18T09:20:20.992Z,77.94
2016-10-18T09:21:35.381Z,77.94
2016-10-18T09:22:47.264Z,78.03
2016-10-18T09:23:59.632Z,77.78
2016-10-18T09:25:12.598Z,77.21
2016-10-18T09:26:25.609Z,77.21
2016-10-18T09:27:38.007Z,76.72
2016-10-18T09:28:50.589Z,76.82
2016-10-18T09:30:02.535Z,76.53
2016-10-18T09:31:15.529Z,76.82
2016-10-18T09:32:27.545Z,76.43
2016-10-18T09:33:40.045Z,76.09
2016-10-18T09:34:53.169Z,76.18
2016-10-18T09:36:04.079Z,76.28
2016-10-18T09:37:15.995Z,75.51
2016-10-18T09:38:28.546Z,75.89
2016-10-18T09:39:41.719Z,75.89
2016-10-18T09:40:55.260Z,75.6
2016-10-18T09:42:08.263Z,75.51
2016-10-18T09:43:19.116Z,74.83
2016-10-18T09:44:31.050Z,74.96
2016-10-18T09:45:44.194Z,74.48
2016-10-18T09:46:55.572Z,74.48
2016-10-18T09:48:09.177Z,74.1
2016-10-18T09:49:21.609Z,74.1
2016-10-18T09:50:34.252Z,74
2016-10-18T09:51:45.729Z,74.19
2016-10-18T09:52:58.206Z,74.1
2016-10-18T09:54:11.279Z,73.03
2016-10-18T09:55:23.848Z,73.52
2016-10-18T09:56:36.784Z,73.16
2016-10-18T09:57:49.717Z,72.68
2016-10-18T09:59:01.833Z,72.58
2016-10-18T10:00:13.824Z,72.3
2016-10-18T10:01:25.037Z,72.58
2016-10-18T10:02:36.580Z,72
2016-10-18T10:03:48.886Z,72.1
2016-10-18T10:05:01.315Z,71.52
2016-10-18T10:06:14.445Z,72.04
2016-10-18T10:07:27.548Z,72.33
2016-10-18T10:08:40.085Z,71.75
2016-10-18T10:09:52.557Z,71.46
2016-10-18T10:11:05.081Z,71.46
2016-10-18T10:12:18.149Z,71.17
2016-10-18T10:13:31.627Z,71.36
2016-10-18T10:14:44.636Z,70.88
2016-10-18T10:15:57.638Z,70.68
2016-10-18T10:17:10.107Z,70.59
2016-10-18T10:18:23.146Z,70.24
2016-10-18T10:19:36.647Z,70.14
2016-10-18T10:20:50.070Z,69.66
2016-10-18T10:22:02.590Z,69.17
2016-10-18T10:23:16.833Z,69.56
2016-10-18T10:24:29.810Z,69.56
2016-10-18T10:25:42.956Z,69.27
2016-10-18T10:26:56.609Z,68.88
2016-10-18T10:28:09.624Z,69.17
2016-10-18T10:29:22.868Z,68.79
2016-10-18T10:30:36.402Z,68.59
2016-10-18T10:31:49.443Z,68.63
2016-10-18T10:33:02.467Z,68.53
2016-10-18T10:34:15.109Z,68.15
2016-10-18T10:35:27.576Z,67.95
2016-10-18T10:36:40.572Z,68.05
2016-10-18T10:37:53.597Z,68.15
2016-10-18T10:39:06.978Z,67.66
2016-10-18T10:40:20.173Z,67.56
2016-10-18T10:41:33.652Z,67.37
2016-10-18T10:42:46.610Z,67.66
2016-10-18T10:43:59.053Z,67.18
2016-10-18T10:45:12.288Z,66.78
2016-10-18T10:46:25.205Z,67.27
2016-10-18T10:47:38.687Z,66.82
2016-10-18T10:48:51.675Z,67.11
2016-10-18T10:50:03.941Z,66.72
2016-10-18T10:51:16.637Z,66.82
2016-10-18T10:52:30.164Z,66.63
2016-10-18T10:53:43.232Z,66.72
2016-10-18T10:54:56.501Z,66.82
2016-10-18T10:56:10.337Z,67.02
2016-10-18T10:57:23.523Z,66.92
2016-10-18T10:58:36.894Z,66.24
2016-10-18T10:59:49.400Z,66.72
2016-10-18T11:01:01.420Z,66.82
2016-10-18T11:02:15.020Z,67.02
2016-10-18T11:03:28.065Z,66.69
2016-10-18T11:04:41.524Z,66.63
2016-10-18T11:05:54.549Z,67.08
2016-10-18T11:07:07.282Z,66.98
2016-10-18T11:08:19.725Z,67.08
2016-10-18T11:09:32.634Z,67.27
2016-10-18T11:10:45.841Z,67.37
2016-10-18T11:11:57.320Z,67.27
2016-10-18T11:13:09.238Z,67.37
2016-10-18T11:14:20.572Z,66.92
2016-10-18T11:15:33.580Z,67.21
2016-10-18T11:16:47.111Z,67.3
2016-10-18T11:18:00.933Z,66.72
2016-10-18T11:19:13.868Z,66.63
2016-10-18T11:20:26.803Z,66.63
2016-10-18T11:21:39.745Z,66.34
2016-10-18T11:22:53.246Z,66.14
2016-10-18T11:24:06.042Z,66.43
2016-10-18T11:25:18.518Z,66.92
2016-10-18T11:26:32.154Z,66.43
2016-10-18T11:27:45.132Z,65.75
2016-10-18T11:28:58.272Z,65.37
2016-10-18T11:30:11.248Z,65.47
2016-10-18T11:31:23.708Z,65.11
2016-10-18T11:32:36.116Z,65.5
2016-10-18T11:33:49.081Z,64.92
2016-10-18T11:35:02.098Z,64.92
2016-10-18T11:36:13.462Z,64.72
2016-10-18T11:37:26.455Z,64.72
2016-10-18T11:38:39.999Z,63.85
2016-10-18T11:39:53.566Z,63.95
2016-10-18T11:41:06.580Z,63.88
2016-10-18T11:42:19.535Z,63.49
2016-10-18T11:43:32.505Z,63.01
2016-10-18T11:44:45.484Z,62.52
2016-10-18T11:45:58.438Z,62.13
2016-10-18T11:47:11.386Z,62.13
2016-10-18T11:48:23.849Z,61.75
2016-10-18T11:49:37.426Z,61.78
2016-10-18T11:50:50.598Z,61.98
2016-10-18T11:52:03.542Z,61.22
2016-10-18T11:53:15.974Z,60.84
2016-10-18T11:54:28.425Z,60.35
2016-10-18T11:55:41.320Z,60.35
2016-10-18T11:56:54.772Z,59.7
2016-10-18T11:58:08.506Z,59.03
2016-10-18T11:59:21.109Z,58.25
2016-10-18T12:00:34.053Z,57.76
2016-10-18T12:01:47.147Z,58.08
2016-10-18T12:03:00.250Z,57.31
2016-10-18T12:04:13.260Z,56.85
2016-10-18T12:05:25.687Z,56.65
2016-10-18T12:06:39.147Z,56.56
2016-10-18T12:07:52.253Z,56.56
2016-10-18T12:09:05.253Z,55.61
2016-10-18T12:10:17.947Z,55.22
2016-10-18T12:11:31.029Z,53.77
2016-10-18T12:12:44.672Z,53.86
2016-10-18T12:13:57.394Z,53.08
2016-10-18T12:15:10.936Z,52.59
2016-10-18T12:16:23.952Z,52.31
2016-10-18T12:17:36.581Z,52.79
2016-10-18T12:18:49.779Z,53.28
2016-10-18T12:20:02.806Z,53.08
2016-10-18T12:21:14.736Z,52.98
2016-10-18T12:22:27.584Z,53.45
2016-10-18T12:23:41.482Z,53.16
2016-10-18T12:24:54.944Z,53.64
2016-10-18T12:26:08.541Z,53.45
2016-10-18T12:27:22.357Z,53.16
2016-10-18T12:28:35.292Z,53.45
2016-10-18T12:29:48.805Z,53.74
2016-10-18T12:31:02.344Z,53.74
2016-10-18T12:32:15.998Z,53.83
2016-10-18T12:33:29.601Z,53.64
2016-10-18T12:34:42.510Z,53.16
2016-10-18T12:35:55.514Z,53.25
2016-10-18T12:37:08.209Z,53.25
2016-10-18T12:38:51.897Z,53.54
2016-10-18T12:40:03.866Z,53.28
2016-10-18T12:41:17.117Z,53.08
2016-10-18T12:42:29.778Z,52.31
2016-10-18T12:43:42.801Z,51.82
2016-10-18T12:44:55.867Z,51.45
2016-10-18T12:46:09.467Z,50.68
2016-10-18T12:47:22.513Z,50.29
2016-10-18T12:48:35.458Z,49.92
2016-10-18T12:49:49.285Z,49.54
2016-10-18T12:51:01.777Z,49.34
2016-10-18T12:52:15.300Z,48.36
2016-10-18T12:53:27.810Z,46.83
2016-10-18T12:54:40.765Z,45.67
2016-10-18T12:55:53.792Z,45.86
2016-10-18T12:57:06.994Z,45.67
2016-10-18T12:58:21.940Z,44.32
2016-10-18T12:59:34.380Z,44.62
2016-10-18T13:00:47.428Z,43.76
2016-10-18T13:02:00.466Z,43.47
2016-10-18T13:03:12.874Z,42.4
2016-10-18T13:04:26.373Z,42.2
2016-10-18T13:05:39.844Z,41.83
2016-10-18T13:06:53.309Z,41.93
2016-10-18T13:08:06.001Z,41.83
2016-10-18T13:09:19.003Z,41.83
2016-10-18T13:10:32.164Z,41.56
2016-10-18T13:11:44.688Z,41.75
2016-10-18T13:12:58.251Z,41.67
2016-10-18T13:14:11.202Z,40.89
2016-10-18T13:15:24.209Z,39.82
2016-10-18T13:16:37.733Z,40.23
2016-10-18T13:17:49.766Z,40.21
2016-10-18T13:19:03.317Z,39.55
2016-10-18T13:20:16.891Z,39.26
2016-10-18T13:21:30.387Z,39.16
2016-10-18T13:22:44.023Z,37.89
2016-10-18T13:23:57.571Z,37.89
2016-10-18T13:25:11.062Z,37.52
2016-10-18T13:26:24.505Z,37.81
2016-10-18T13:27:38.082Z,37.81
2016-10-18T13:28:51.032Z,37.32
2016-10-18T13:30:03.438Z,37.41
2016-10-18T13:31:15.838Z,36.93
2016-10-18T13:32:26.739Z,36.15
2016-10-18T13:33:40.289Z,36.16
2016-10-18T13:34:53.336Z,35.97
2016-10-18T13:36:05.239Z,35.19
2016-10-18T13:37:18.264Z,35.19
2016-10-18T13:38:31.288Z,35.28
2016-10-18T13:39:44.833Z,34.31
2016-10-18T13:40:57.994Z,34.31
2016-10-18T13:42:11.696Z,34.31
2016-10-18T13:43:24.275Z,33.43
2016-10-18T13:44:37.977Z,33.34
2016-10-18T13:45:50.897Z,33.05
2016-10-18T13:47:04.328Z,33.74
2016-10-18T13:48:17.365Z,34.34
2016-10-18T13:49:30.853Z,33.36
2016-10-18T13:50:43.844Z,31.99
2016-10-18T13:51:56.474Z,31.9
2016-10-18T13:53:09.359Z,31.7
2016-10-18T13:54:22.944Z,32.19
2016-10-18T13:55:36.123Z,31.8
2016-10-18T13:56:48.571Z,31.81
2016-10-18T13:58:01.066Z,31.81
2016-10-18T13:59:13.518Z,31.83
2016-10-18T14:00:25.973Z,31.83
2016-10-18T14:01:37.661Z,32.03
2016-10-18T14:02:50.742Z,31.06
2016-10-18T14:04:04.216Z,30.96
2016-10-18T14:05:17.215Z,31.16
2016-10-18T14:06:29.954Z,31.07
2016-10-18T14:07:41.401Z,30.68
2016-10-18T14:08:53.308Z,30.68
2016-10-18T14:10:06.785Z,29.7
2016-10-18T14:11:20.287Z,29.8
2016-10-18T14:12:33.584Z,29.31
2016-10-18T14:13:46.015Z,30
2016-10-18T14:14:58.999Z,29.9
2016-10-18T14:16:11.419Z,29.21
2016-10-18T14:17:23.477Z,28.92
2016-10-18T14:18:36.994Z,28.54
2016-10-18T14:19:49.463Z,27.56
2016-10-18T14:21:02.609Z,27.87
2016-10-18T14:22:15.147Z,27.28
2016-10-18T14:23:28.147Z,25.93
2016-10-18T14:24:40.575Z,24.77
2016-10-18T14:25:53.205Z,24.69
2016-10-18T14:27:06.977Z,24.41
2016-10-18T14:28:20.149Z,23.35
2016-10-18T14:29:32.125Z,22.56
2016-10-18T14:30:44.070Z,22.38
2016-10-18T14:31:56.035Z,22.78
2016-10-18T14:33:09.088Z,20.83
2016-10-18T14:34:21.523Z,20.45
2016-10-18T14:35:33.952Z,19.77
2016-10-18T14:36:47.451Z,19.28
2016-10-18T14:37:59.922Z,18.31
2016-10-18T14:39:12.530Z,18.31
2016-10-18T14:40:25.465Z,18.02
2016-10-18T14:41:39.011Z,18.23
2016-10-18T14:42:51.446Z,17.25
2016-10-18T14:44:03.873Z,17.26
2016-10-18T14:45:16.804Z,16.38
2016-10-18T14:46:29.999Z,16.49
2016-10-18T14:47:42.479Z,16.3
2016-10-18T14:48:55.527Z,16.1
2016-10-18T14:50:08.136Z,15.52
2016-10-18T14:51:21.137Z,15.92
2016-10-18T14:52:33.541Z,14.53
2016-10-18T14:53:45.977Z,14.05
2016-10-18T14:54:58.975Z,13.86
2016-10-18T14:56:12.020Z,13.17
2016-10-18T14:57:25.594Z,13.39
2016-10-18T14:58:37.691Z,12.7
2016-10-18T15:00:22.395Z,10.8
2016-10-18T15:01:34.834Z,11
2016-10-18T15:02:48.370Z,10.21
2016-10-18T15:04:01.354Z,10.42
2016-10-18T15:05:14.361Z,10.02
2016-10-18T15:06:27.293Z,9.62
2016-10-18T15:07:39.642Z,10.13
2016-10-18T15:08:53.178Z,9.23
2016-10-18T15:10:06.158Z,9.23
2016-10-18T15:11:20.135Z,9.03
2016-10-18T15:12:33.133Z,9.03
2016-10-18T15:13:46.607Z,9.64
2016-10-18T15:15:00.093Z,9.34
2016-10-18T15:16:13.586Z,8.94
2016-10-18T15:17:26.022Z,9.15
2016-10-18T15:18:39.057Z,8.45
2016-10-18T15:19:51.042Z,7.25
2016-10-18T15:21:03.695Z,6.85
2016-10-18T15:22:15.774Z,7.56
2016-10-18T15:23:28.266Z,7.66
2016-10-18T15:24:41.590Z,7.26
2016-10-18T15:25:54.053Z,7.06
2016-10-18T15:27:07.070Z,7.67
2016-10-18T15:28:19.594Z,7.87
2016-10-18T15:29:31.497Z,7.06
2016-10-18T15:30:45.018Z,7.56
2016-10-18T15:31:57.471Z,7.66
2016-10-18T15:33:10.123Z,8.06
2016-10-18T15:34:22.050Z,8.76
2016-10-18T15:35:34.570Z,9.56
2016-10-18T15:36:47.524Z,10.05
2016-10-18T15:38:00.021Z,9.94
2016-10-18T15:39:13.162Z,10.43
2016-10-18T15:40:26.144Z,10.82
2016-10-18T15:41:39.230Z,11.22